Latest Coastal Weather Observations for Sydney Airport

IDN60701

Issued at 1:11 pm EDT Tuesday 17 October 2017 (issued every 10 minutes, with the page automatically refreshed every 10 minutes)

About coastal observations | Map of coastal stations | Coastal observations for NSW | Marine services | Other Formats
Station Details ID: 066037 Name: SYDNEY AIRPORT AMO Lat: -33.95 Lon: 151.17 Height: 6.0 m
Data from the previous 72 hours. | See also: Recent months at Sydney Airport
Date/Time
EDT
Temp
°C
Wind Pressure Rain since
9am
mm
Weather Cloud Vis
km
Sea
Height
m
Swell
Dir  Spd
kts
Gust
kts
hPa Trend Height
m
Period
s
Dir
17/01:00pm 24.3 NE 15 20 1026.9 - 0.0 - Clear 10 - - - -
17/12:30pm 23.4 NNE 15 20 1027.1 - 0.0 - - 10 - - - -
17/12:00pm 24.6 NE 12 17 1027.4 F 0.0 Fine Partly cloudy 25 - - - -
17/11:30am 23.0 NNE 12 16 1027.9 - 0.0 - Mostly clear 10 - - - -
17/11:00am 22.6 NE 15 19 1028.1 - 0.0 - Mostly clear 10 - - - -
17/10:30am 23.2 N 14 18 1028.4 - 0.0 - Mostly clear 10 - - - -
17/10:00am 22.1 NNE 13 18 1028.5 - 0.0 - Mostly clear 10 - - - -
17/09:30am 22.4 NNE 14 18 1028.5 - 0.0 - Mostly clear 10 - - - -
17/09:00am 21.7 N 6 8 1028.3 R 0.0 Haze Mostly cloudy 20 - - - -
17/08:30am 20.4 W 5 6 1028.2 - 0.0 - Mostly clear 10 - - - -
17/08:00am 19.1 WNW 6 8 1028.0 - 0.0 - Mostly clear 10 - - - -
17/07:30am 20.1 NW 5 6 1027.9 - 0.0 - Mostly clear 10 - - - -
17/07:00am 19.3 NW 5 6 1027.8 - 0.0 - Mostly clear 10 - - - -
17/06:30am 18.5 WNW 5 7 1027.3 - 0.0 - Mostly clear 10 - - - -
17/06:00am 17.8 WNW 4 5 1027.0 F 0.0 Fine Mostly cloudy 25 - - - -
17/05:30am 18.0 WNW 5 7 1026.7 - 0.0 - Mostly clear 10 - - - -
17/05:00am 18.6 NW 7 7 1026.8 - 0.0 - Mostly clear 10 - - - -
17/04:30am 19.0 NNW 4 6 1026.9 - 0.0 - Mostly clear 10 - - - -
17/04:00am 19.0 NE 5 7 1026.8 - 0.0 - Mostly clear 10 - - - -
17/03:30am 19.0 NNW 3 4 1026.8 - 0.0 - Mostly clear 10 - - - -
17/03:00am 18.5 WNW 3 4 1027.0 S 0.0 Fine Mostly cloudy 30 - - - -
17/02:30am 19.0 NW 3 4 1027.3 - 0.0 - Mostly clear 10 - - - -
17/02:00am 18.8 WNW 4 4 1027.4 - 0.0 - Mostly cloudy 10 - - - -
17/01:30am 19.4 NNW 5 6 1027.8 - 0.0 - Mostly cloudy 10 - - - -
17/01:00am 19.5 NNE 5 6 1028.0 - 0.0 - Mostly cloudy 10 - - - -
17/12:30am 19.5 NE 4 4 1028.1 - 0.0 - Mostly cloudy 10 - - - -
17/12:00am 19.2 NE 3 4 1028.2 F 0.0 Fine Mostly cloudy 40 - - - -
 
Date/Time
EDT
Temp
°C
Wind Pressure Rain since
9am
mm
Weather Cloud Vis
km
Sea
Height
m
Swell
Dir  Spd
kts
Gust
kts
hPa Trend Height
m
Period
s
Dir
16/11:30pm 18.9 NE 4 5 1028.2 - 0.0 - Mostly cloudy 10 - - - -
16/11:00pm 18.7 ENE 5 6 1028.1 - 0.0 - Mostly clear 10 - - - -
16/10:30pm 19.2 NE 5 6 1028.0 - 0.0 - Mostly clear 10 - - - -
16/10:00pm 19.5 NE 6 7 1028.2 - 0.0 - Mostly clear 10 - - - -
16/09:30pm 19.5 NNE 7 9 1028.3 - 0.0 - Mostly clear 10 - - - -
16/09:00pm 19.7 NE 6 8 1028.1 F 0.0 Fine Mostly clear 40 - - - -
16/08:30pm 19.7 NE 7 9 1027.9 - 0.0 - Mostly clear 10 - - - -
16/08:00pm 20.0 NE 8 11 1027.5 - 0.0 - Mostly clear 10 - - - -
16/07:30pm 19.9 NE 10 14 1027.2 - 0.0 - Mostly clear 10 - - - -
16/07:00pm 20.8 NE 11 14 1027.0 - 0.0 - Partly cloudy 10 - - - -
16/06:30pm 21.2 NE 14 17 1026.7 - 0.0 - Partly cloudy 10 - - - -
16/06:00pm 22.1 NE 12 16 1026.6 F 0.0 Fine Mostly cloudy 40 - - - -
16/05:30pm 21.0 E 12 18 1026.4 - 0.0 - Partly cloudy 10 - - - -
16/05:00pm 22.3 ENE 15 18 1026.2 - 0.0 - Mostly clear 10 - - - -
16/04:30pm 22.3 E 15 19 1026.0 - 0.0 - Mostly clear 10 - - - -
16/04:00pm 23.0 ENE 15 20 1026.2 - 0.0 - Mostly clear 10 - - - -
16/03:30pm 23.1 E 13 17 1026.4 - 0.0 - Mostly clear 10 - - - -
16/03:00pm 22.6 ENE 14 18 1026.6 F 0.0 Fine Mostly clear 40 - - - -
16/02:30pm 23.9 E 14 16 1026.9 - 0.0 - Mostly clear 10 - - - -
16/02:00pm 23.4 E 13 18 1027.1 - 0.0 - Mostly clear 10 - - - -
16/01:30pm 23.0 E 12 16 1027.5 - 0.0 - Mostly clear 10 - - - -
16/01:00pm 23.3 E 12 17 1027.8 - 0.0 - Partly cloudy 10 - - - -
16/12:30pm 22.8 ENE 12 16 1028.1 - 0.0 - Partly cloudy 10 - - - -
16/12:00pm 23.7 E 10 15 1028.5 R 0.0 Fine Partly cloudy 30 - - - -
16/11:30am 22.7 ESE 11 16 1028.5 - 0.0 - Partly cloudy 10 - - - -
16/11:00am 22.4 ENE 10 14 1028.7 - 0.0 - Partly cloudy 10 - - - -
16/10:30am 22.4 ENE 10 14 1028.7 - 0.0 - Mostly cloudy 10 - - - -
16/10:00am 22.8 E 8 13 1028.6 - 0.0 - Partly cloudy 10 - - - -
16/09:30am 21.9 ESE 9 11 1028.5 - 0.0 - Partly cloudy 10 - - - -
16/09:00am 21.9 ESE 8 10 1028.0 R 0.0 Haze Partly cloudy 25 - - - -
16/08:30am 19.2 E 7 10 1027.6 - 0.0 - Partly cloudy 10 - - - -
16/08:00am 17.6 SW 5 7 1027.4 - 0.0 - Mostly clear 10 - - - -
16/07:30am 17.5 SW 5 7 1027.0 - 0.0 - Mostly clear 10 - - - -
16/07:00am 16.4 SW 5 6 1026.6 - 0.0 - Mostly clear 10 - - - -
16/06:30am 15.6 W 3 5 1026.1 - 0.0 - Mostly clear 10 - - - -
16/06:00am 16.1 SW 4 5 1025.8 F 0.0 Haze Mostly clear 20 - - - -
16/05:30am 16.7 CALM 0 2 1025.5 - 0.0 - Mostly clear 10 - - - -
16/05:00am 17.7 NE 2 3 1025.4 - 0.0 - Mostly clear 10 - - - -
16/04:30am 17.1 NE 5 6 1025.5 - 0.0 - Mostly clear 10 - - - -
16/04:00am 17.7 NE 5 5 1025.5 - 0.0 - Mostly clear 10 - - - -
16/03:30am 17.0 E 7 7 1025.5 - 0.0 - Partly cloudy 10 - - - -
16/03:00am 17.3 E 7 8 1025.7 R 0.0 Fine Partly cloudy 25 - - - -
16/02:30am 17.3 NE 5 7 1025.8 - 0.0 - Partly cloudy 10 - - - -
16/02:00am 17.5 NE 5 6 1025.9 - 0.0 - Mostly clear 10 - - - -
16/01:30am 17.1 ENE 5 7 1026.1 - 0.0 - Mostly clear 10 - - - -
16/01:00am 17.5 ENE 6 7 1026.4 - 0.0 - Mostly clear 10 - - - -
16/12:30am 17.7 ENE 7 9 1026.6 - 0.0 - Mostly clear 10 - - - -
16/12:00am 17.8 NE 7 8 1026.7 S 0.0 Fine Mostly clear 25 - - - -
 
Date/Time
EDT
Temp
°C
Wind Pressure Rain since
9am
mm
Weather Cloud Vis
km
Sea
Height
m
Swell
Dir  Spd
kts
Gust
kts
hPa Trend Height
m
Period
s
Dir
15/11:30pm 17.8 ENE 8 10 1026.5 - 0.0 - Mostly clear 10 - - - -
15/11:00pm 18.4 NE 8 10 1026.6 - 0.0 - Mostly clear 10 - - - -
15/10:30pm 18.6 NE 7 9 1026.5 - 0.0 - Mostly clear 10 - - - -
15/10:00pm 18.6 ENE 7 9 1026.6 - 0.0 - Mostly clear 10 - - - -
15/09:30pm 19.0 E 8 11 1026.5 - 0.0 - Mostly clear 10 - - - -
15/09:00pm 19.2 E 9 11 1026.3 F 0.0 Recent precip. Mostly cloudy 25 - - - -
15/08:30pm 19.4 E 9 12 1026.1 - 0.0 - Partly cloudy 10 - - - -
15/08:00pm 19.4 E 10 13 1025.7 - 0.0 - Partly cloudy 10 - - - -
15/07:30pm 19.3 E 10 13 1025.5 - 0.0 - Partly cloudy 10 - - - -
15/07:00pm 19.5 E 10 13 1025.1 - 0.0 - Mostly clear 10 - - - -
15/06:30pm 19.6 E 11 13 1024.9 - 0.0 - Mostly clear 10 - - - -
15/06:00pm 19.6 ENE 10 12 1024.8 R 0.0 Fine Mostly cloudy 30 - - - -
15/05:30pm 19.4 ENE 10 12 1024.7 - 0.0 - Partly cloudy 10 - - - -
15/05:00pm 20.0 E 11 15 1024.7 - 0.0 - Partly cloudy 10 - - - -
15/04:30pm 20.1 E 11 17 1024.6 - 0.0 - Partly cloudy 10 - - - -
15/04:00pm 20.5 ESE 11 15 1024.5 - 0.0 - Mostly clear 10 - - - -
15/03:30pm 20.4 E 10 14 1024.5 - 0.0 - Partly cloudy 10 - - - -
15/03:00pm 20.7 ESE 11 15 1024.6 R 0.0 Fine Mostly cloudy 30 - - - -
15/02:30pm 20.8 SE 11 15 1024.8 - 0.0 - Mostly clear 10 - - - -
15/02:00pm 20.8 ESE 11 16 1025.0 - 0.0 - Partly cloudy 10 - - - -
15/01:30pm 20.9 SE 10 16 1025.0 - 0.0 - Partly cloudy 10 - - - -
15/01:00pm 21.1 ESE 10 14 1025.1 - 0.0 - Partly cloudy 10 - - - -
15/12:30pm 21.0 ESE 11 16 1025.3 - 0.0 - Mostly clear 10 - - - -
15/12:00pm 20.8 SE 11 15 1025.5 R 0.0 Fine Mostly cloudy 30 - - - -
15/11:30am 20.3 ESE 11 15 1025.7 - 0.0 - Partly cloudy 10 - - - -
15/11:00am 20.0 SE 12 15 1025.8 - 0.0 - Mostly clear 10 - - - -
15/10:30am 20.0 SE 10 13 1025.6 - 0.0 - Mostly clear 10 - - - -
15/10:00am 19.6 SE 11 13 1025.4 - 0.0 - Mostly clear 10 - - - -
15/09:30am 20.3 SE 11 14 1025.3 - 0.0 - Mostly clear 10 - - - -
15/09:00am 20.0 SE 10 12 1025.0 S 0.2 Fine Partly cloudy 30 - - - -
15/08:30am 20.4 ESE 9 10 1024.7 - 0.2 - Mostly clear 10 - - - -
15/08:00am 18.8 ESE 8 9 1024.7 - 0.0 - Mostly clear 10 - - - -
15/07:30am 18.3 ESE 8 10 1024.5 - 0.0 - Mostly clear 10 - - - -
15/07:00am 17.9 ESE 9 12 1024.3 - 0.0 - Mostly clear 10 - - - -
15/06:30am 17.7 ESE 9 10 1024.0 - 0.0 - Mostly clear 10 - - - -
15/06:00am 17.6 ESE 9 12 1023.8 F 0.0 Fine Mostly cloudy 30 - - - -
15/05:30am 17.7 ESE 9 13 1023.8 - 0.0 - Mostly clear 10 - - - -
15/05:00am 17.6 ESE 9 11 1023.8 - 0.0 - Mostly clear 10 - - - -
15/04:30am 17.5 ESE 9 11 1023.8 - 0.0 - Mostly clear 10 - - - -
15/04:00am 17.2 ESE 7 9 1023.8 - 0.0 - Mostly clear 10 - - - -
15/03:30am 17.2 ESE 9 11 1023.9 - 0.0 - Mostly clear 10 - - - -
15/03:00am 17.1 ESE 9 11 1024.3 R 0.0 Fine Mostly cloudy 22 - - - -
15/02:30am 17.1 ESE 10 14 1024.4 - 0.0 - Mostly clear 10 - - - -
15/02:00am 17.3 E 10 14 1024.6 - 0.0 - Mostly clear 10 - - - -
15/01:30am 17.4 ESE 9 12 1024.8 - 0.0 - Mostly clear 10 - - - -
15/01:00am 17.5 ESE 9 10 1025.0 - 0.0 - Mostly clear 10 - - - -
15/12:30am 17.7 SE 10 13 1025.1 - 0.0 - Mostly clear 10 - - - -
15/12:00am 17.5 SE 10 13 1025.0 F 0.0 Fine Mostly cloudy 22 - - - -
 
Date/Time
EDT
Temp
°C
Wind Pressure Rain since
9am
mm
Weather Cloud Vis
km
Sea
Height
m
Swell
Dir  Spd
kts
Gust
kts
hPa Trend Height
m
Period
s
Dir
14/11:30pm 17.4 SE 10 13 1025.1 - 0.0 - Mostly clear 10 - - - -
14/11:00pm 17.3 SE 10 14 1025.2 - 0.0 - Mostly clear 10 - - - -
14/10:30pm 17.6 ESE 9 12 1025.3 - 0.0 - Mostly clear 10 - - - -
14/10:00pm 17.4 ESE 9 11 1025.2 - 0.0 - Partly cloudy 10 - - - -
14/09:30pm 17.5 SSE 9 12 1025.1 - 0.0 - Mostly clear 10 - - - -
14/09:00pm 17.4 SSE 11 14 1024.9 F 0.0 Distant precip. Mostly cloudy 22 - - - -
14/08:30pm 16.9 SE 14 16 1024.9 - 0.0 - Mostly clear 10 - - - -
14/08:00pm 16.2 ESE 13 15 1024.9 - 0.0 - Partly cloudy 10 - - - -
14/07:30pm 15.7 ESE 14 18 1024.9 - 0.0 Drizzle Partly cloudy 6 - - - -
14/07:13pm 16.1 E 15 19 1024.7 - 0.0 Drizzle Mostly clear 5 - - - -
14/07:00pm 17.8 SE 15 17 1024.5 - 0.0 - Partly cloudy 10 - - - -
14/06:30pm 18.2 SE 13 17 1024.0 - 0.0 - Mostly clear 10 - - - -
14/06:00pm 18.5 SSE 15 18 1023.6 R 0.0 Distant precip. Cloudy 20 - - - -
14/05:30pm 18.4 SSE 15 19 1023.3 - 0.0 - Partly cloudy 10 - - - -
14/05:00pm 18.5 SSE 16 20 1023.1 - 0.0 - Partly cloudy 10 - - - -
14/04:30pm 18.8 SSE 14 18 1023.1 - 0.0 - Mostly clear 10 - - - -
14/04:00pm 18.8 SSE 15 19 1022.9 - 0.0 - Mostly clear 10 - - - -
14/03:30pm 18.6 SSE 15 19 1023.1 - 0.0 - Mostly clear 10 - - - -
14/03:00pm 18.5 SSE 15 18 1023.2 R 0.0 Distant precip. Mostly cloudy 25 - - - -
14/02:30pm 18.3 SSE 16 20 1023.4 - 0.0 - Partly cloudy 10 - - - -
14/02:00pm 18.9 SSE 16 21 1023.7 - 0.0 - Mostly clear 10 - - - -
14/01:30pm 18.5 SSE 17 21 1023.7 - 0.0 - Partly cloudy 10 - - - -

Other Formats:

Comma delimited format used in spreadsheet applications
http://www.bom.gov.au/fwo/IDN60701/IDN60701.94767.axf

JavaScript Object Notation format (JSON) in row-major order
http://www.bom.gov.au/fwo/IDN60701/IDN60701.94767.json